sensor_id;sensor_type;location;lat;lon;timestamp;pressure;altitude;pressure_sealevel;temperature;humidity
50632;BME280;49583;45.590;-122.498;2023-04-07T00:01:33;100493.23;;;9.99;85.94
50632;BME280;49583;45.590;-122.498;2023-04-07T00:03:50;100492.69;;;9.99;86.03
50632;BME280;49583;45.590;-122.498;2023-04-07T00:06:26;100489.41;;;9.98;85.98
50632;BME280;49583;45.590;-122.498;2023-04-07T00:09:02;100480.40;;;9.98;86.02
50632;BME280;49583;45.590;-122.498;2023-04-07T00:11:36;100468.30;;;9.98;86.45
50632;BME280;49583;45.590;-122.498;2023-04-07T00:14:11;100475.40;;;10.02;86.82
50632;BME280;49583;45.590;-122.498;2023-04-07T00:16:25;100472.06;;;10.03;86.71
50632;BME280;49583;45.590;-122.498;2023-04-07T00:18:43;100464.29;;;10.01;86.35
50632;BME280;49583;45.590;-122.498;2023-04-07T00:21:09;100468.84;;;10.02;86.49
50632;BME280;49583;45.590;-122.498;2023-04-07T00:23:43;100463.02;;;10.03;87.05
50632;BME280;49583;45.590;-122.498;2023-04-07T00:26:17;100461.88;;;10.05;87.25
50632;BME280;49583;45.590;-122.498;2023-04-07T00:28:38;100463.05;;;10.06;87.25
50632;BME280;49583;45.590;-122.498;2023-04-07T00:31:15;100458.53;;;10.07;87.41
50632;BME280;49583;45.590;-122.498;2023-04-07T00:33:33;100454.55;;;10.07;87.63
50632;BME280;49583;45.590;-122.498;2023-04-07T00:36:07;100461.03;;;10.11;87.45
50632;BME280;49583;45.590;-122.498;2023-04-07T00:38:43;100459.45;;;10.13;87.79
50632;BME280;49583;45.590;-122.498;2023-04-07T00:41:17;100462.44;;;10.15;87.31
50632;BME280;49583;45.590;-122.498;2023-04-07T00:43:31;100463.08;;;10.16;87.15
50632;BME280;49583;45.590;-122.498;2023-04-07T00:46:05;100457.36;;;10.14;87.08
50632;BME280;49583;45.590;-122.498;2023-04-07T00:48:40;100456.31;;;10.13;87.29
50632;BME280;49583;45.590;-122.498;2023-04-07T00:50:58;100453.90;;;10.13;87.07
50632;BME280;49583;45.590;-122.498;2023-04-07T00:53:18;100455.59;;;10.12;87.25
50632;BME280;49583;45.590;-122.498;2023-04-07T00:55:43;100452.23;;;10.12;87.39
50632;BME280;49583;45.590;-122.498;2023-04-07T00:58:18;100456.66;;;10.14;87.40
50632;BME280;49583;45.590;-122.498;2023-04-07T01:00:58;100453.91;;;10.15;87.18
50632;BME280;49583;45.590;-122.498;2023-04-07T01:03:38;100451.50;;;10.15;87.37
50632;BME280;49583;45.590;-122.498;2023-04-07T01:06:16;100453.06;;;10.14;87.05
50632;BME280;49583;45.590;-122.498;2023-04-07T01:08:53;100449.59;;;10.13;86.97
50632;BME280;49583;45.590;-122.498;2023-04-07T01:11:31;100450.73;;;10.11;87.33
50632;BME280;49583;45.590;-122.498;2023-04-07T01:14:11;100441.36;;;10.12;87.79
50632;BME280;49583;45.590;-122.498;2023-04-07T01:16:48;100449.09;;;10.15;87.69
50632;BME280;49583;45.590;-122.498;2023-04-07T01:19:33;100449.71;;;10.16;87.26
50632;BME280;49583;45.590;-122.498;2023-04-07T01:21:51;100443.41;;;10.13;87.44
50632;BME280;49583;45.590;-122.498;2023-04-07T01:24:33;100446.94;;;10.13;87.58
50632;BME280;49583;45.590;-122.498;2023-04-07T01:26:53;100448.89;;;10.12;87.66
50632;BME280;49583;45.590;-122.498;2023-04-07T01:29:36;100446.99;;;10.12;87.75
50632;BME280;49583;45.590;-122.498;2023-04-07T01:31:52;100439.75;;;10.13;87.89
50632;BME280;49583;45.590;-122.498;2023-04-07T01:34:11;100442.26;;;10.14;87.91
50632;BME280;49583;45.590;-122.498;2023-04-07T01:36:36;100436.34;;;10.15;87.96
50632;BME280;49583;45.590;-122.498;2023-04-07T01:38:51;100438.27;;;10.17;87.53
50632;BME280;49583;45.590;-122.498;2023-04-07T01:41:27;100436.67;;;10.16;87.82
50632;BME280;49583;45.590;-122.498;2023-04-07T01:43:44;100437.35;;;10.15;87.81
50632;BME280;49583;45.590;-122.498;2023-04-07T01:46:05;100433.81;;;10.13;87.95
50632;BME280;49583;45.590;-122.498;2023-04-07T01:48:40;100438.48;;;10.13;87.61
50632;BME280;49583;45.590;-122.498;2023-04-07T01:51:07;100442.54;;;10.12;87.55
50632;BME280;49583;45.590;-122.498;2023-04-07T01:56:03;100441.52;;;10.08;87.94
50632;BME280;49583;45.590;-122.498;2023-04-07T01:58:18;100441.88;;;10.07;87.68
50632;BME280;49583;45.590;-122.498;2023-04-07T02:00:42;100449.77;;;10.07;87.58
50632;BME280;49583;45.590;-122.498;2023-04-07T02:03:43;100452.75;;;10.06;87.85
50632;BME280;49583;45.590;-122.498;2023-04-07T02:06:26;100448.89;;;10.04;87.60
50632;BME280;49583;45.590;-122.498;2023-04-07T02:08:44;100447.33;;;10.04;87.37
50632;BME280;49583;45.590;-122.498;2023-04-07T02:10:59;100447.99;;;10.03;87.75
50632;BME280;49583;45.590;-122.498;2023-04-07T02:13:21;100444.11;;;10.01;87.97
50632;BME280;49583;45.590;-122.498;2023-04-07T02:15:37;100445.81;;;10.00;87.86
50632;BME280;49583;45.590;-122.498;2023-04-07T02:17:54;100446.63;;;9.97;88.07
50632;BME280;49583;45.590;-122.498;2023-04-07T02:20:10;100447.87;;;9.96;88.10
50632;BME280;49583;45.590;-122.498;2023-04-07T02:22:23;100439.08;;;9.95;88.05
50632;BME280;49583;45.590;-122.498;2023-04-07T02:24:37;100441.11;;;9.95;88.12
50632;BME280;49583;45.590;-122.498;2023-04-07T02:26:52;100446.37;;;9.96;88.38
50632;BME280;49583;45.590;-122.498;2023-04-07T02:29:05;100450.23;;;9.97;88.12
50632;BME280;49583;45.590;-122.498;2023-04-07T02:31:18;100454.39;;;9.98;88.27
50632;BME280;49583;45.590;-122.498;2023-04-07T02:33:32;100458.94;;;10.00;88.28
50632;BME280;49583;45.590;-122.498;2023-04-07T02:35:45;100461.99;;;10.00;87.94
50632;BME280;49583;45.590;-122.498;2023-04-07T02:37:58;100467.52;;;9.98;87.77
50632;BME280;49583;45.590;-122.498;2023-04-07T02:40:12;100462.62;;;9.96;88.07
50632;BME280;49583;45.590;-122.498;2023-04-07T02:42:26;100458.04;;;9.94;88.30
50632;BME280;49583;45.590;-122.498;2023-04-07T02:44:40;100469.34;;;9.93;88.24
50632;BME280;49583;45.590;-122.498;2023-04-07T02:46:53;100465.97;;;9.92;88.48
50632;BME280;49583;45.590;-122.498;2023-04-07T02:49:07;100465.80;;;9.90;88.84
50632;BME280;49583;45.590;-122.498;2023-04-07T02:51:20;100464.70;;;9.90;88.80
50632;BME280;49583;45.590;-122.498;2023-04-07T02:53:34;100465.65;;;9.91;88.69
50632;BME280;49583;45.590;-122.498;2023-04-07T02:55:47;100472.45;;;9.91;88.70
50632;BME280;49583;45.590;-122.498;2023-04-07T02:58:00;100474.41;;;9.91;88.71
50632;BME280;49583;45.590;-122.498;2023-04-07T03:00:24;100473.14;;;9.90;88.35
50632;BME280;49583;45.590;-122.498;2023-04-07T03:03:03;100474.04;;;9.88;88.62
50632;BME280;49583;45.590;-122.498;2023-04-07T03:05:18;100475.58;;;9.87;88.08
50632;BME280;49583;45.590;-122.498;2023-04-07T03:07:31;100477.83;;;9.87;88.77
50632;BME280;49583;45.590;-122.498;2023-04-07T03:09:46;100476.48;;;9.86;88.80
50632;BME280;49583;45.590;-122.498;2023-04-07T03:11:59;100485.37;;;9.85;88.89
50632;BME280;49583;45.590;-122.498;2023-04-07T03:14:15;100481.36;;;9.85;88.87
50632;BME280;49583;45.590;-122.498;2023-04-07T03:16:29;100483.71;;;9.85;89.03
50632;BME280;49583;45.590;-122.498;2023-04-07T03:18:46;100489.02;;;9.84;89.19
50632;BME280;49583;45.590;-122.498;2023-04-07T03:21:01;100491.74;;;9.83;89.25
50632;BME280;49583;45.590;-122.498;2023-04-07T03:23:14;100490.79;;;9.83;89.35
50632;BME280;49583;45.590;-122.498;2023-04-07T03:25:27;100494.47;;;9.82;89.49
50632;BME280;49583;45.590;-122.498;2023-04-07T03:27:39;100500.78;;;9.82;89.70
50632;BME280;49583;45.590;-122.498;2023-04-07T03:29:54;100501.85;;;9.81;89.52
50632;BME280;49583;45.590;-122.498;2023-04-07T03:32:07;100508.96;;;9.81;89.39
50632;BME280;49583;45.590;-122.498;2023-04-07T03:34:20;100512.74;;;9.82;89.43
50632;BME280;49583;45.590;-122.498;2023-04-07T03:36:33;100514.78;;;9.84;89.53
50632;BME280;49583;45.590;-122.498;2023-04-07T03:38:46;100511.66;;;9.84;89.74
50632;BME280;49583;45.590;-122.498;2023-04-07T03:40:59;100514.32;;;9.84;89.80
50632;BME280;49583;45.590;-122.498;2023-04-07T03:43:12;100511.91;;;9.84;89.97
50632;BME280;49583;45.590;-122.498;2023-04-07T03:45:25;100510.91;;;9.85;89.95
50632;BME280;49583;45.590;-122.498;2023-04-07T03:47:38;100518.44;;;9.86;89.88
50632;BME280;49583;45.590;-122.498;2023-04-07T03:49:51;100517.45;;;9.87;89.34
50632;BME280;49583;45.590;-122.498;2023-04-07T03:52:04;100520.63;;;9.86;89.61
50632;BME280;49583;45.590;-122.498;2023-04-07T03:54:17;100534.80;;;9.87;89.99
50632;BME280;49583;45.590;-122.498;2023-04-07T03:56:32;100534.69;;;9.86;90.12
50632;BME280;49583;45.590;-122.498;2023-04-07T03:58:45;100534.76;;;9.86;90.15
50632;BME280;49583;45.590;-122.498;2023-04-07T04:01:18;100533.64;;;9.85;90.33
50632;BME280;49583;45.590;-122.498;2023-04-07T04:03:31;100537.92;;;9.84;90.44
50632;BME280;49583;45.590;-122.498;2023-04-07T04:05:59;100541.71;;;9.85;90.22
50632;BME280;49583;45.590;-122.498;2023-04-07T04:08:12;100544.21;;;9.86;90.47
50632;BME280;49583;45.590;-122.498;2023-04-07T04:10:25;100543.89;;;9.85;90.01
50632;BME280;49583;45.590;-122.498;2023-04-07T04:12:39;100542.46;;;9.84;90.12
50632;BME280;49583;45.590;-122.498;2023-04-07T04:14:53;100545.50;;;9.83;89.99
50632;BME280;49583;45.590;-122.498;2023-04-07T04:17:06;100558.39;;;9.83;90.08
50632;BME280;49583;45.590;-122.498;2023-04-07T04:19:23;100555.70;;;9.82;90.31
50632;BME280;49583;45.590;-122.498;2023-04-07T04:21:37;100555.69;;;9.81;90.06
50632;BME280;49583;45.590;-122.498;2023-04-07T04:23:51;100555.52;;;9.81;90.07
50632;BME280;49583;45.590;-122.498;2023-04-07T04:26:04;100559.27;;;9.81;90.38
50632;BME280;49583;45.590;-122.498;2023-04-07T04:28:17;100561.83;;;9.80;90.24
50632;BME280;49583;45.590;-122.498;2023-04-07T04:30:31;100564.48;;;9.79;90.26
50632;BME280;49583;45.590;-122.498;2023-04-07T04:32:44;100558.35;;;9.78;90.34
50632;BME280;49583;45.590;-122.498;2023-04-07T04:34:59;100554.88;;;9.77;90.60
50632;BME280;49583;45.590;-122.498;2023-04-07T04:37:14;100556.25;;;9.76;90.76
50632;BME280;49583;45.590;-122.498;2023-04-07T04:39:28;100561.88;;;9.75;90.88
50632;BME280;49583;45.590;-122.498;2023-04-07T04:41:42;100555.85;;;9.74;90.52
50632;BME280;49583;45.590;-122.498;2023-04-07T04:43:55;100554.51;;;9.74;90.92
50632;BME280;49583;45.590;-122.498;2023-04-07T04:46:08;100553.57;;;9.74;90.98
50632;BME280;49583;45.590;-122.498;2023-04-07T04:48:23;100546.57;;;9.75;91.11
50632;BME280;49583;45.590;-122.498;2023-04-07T04:50:35;100545.71;;;9.76;91.43
50632;BME280;49583;45.590;-122.498;2023-04-07T04:52:51;100558.86;;;9.77;91.04
50632;BME280;49583;45.590;-122.498;2023-04-07T04:55:06;100562.80;;;9.78;91.06
50632;BME280;49583;45.590;-122.498;2023-04-07T04:57:23;100557.33;;;9.78;90.79
50632;BME280;49583;45.590;-122.498;2023-04-07T04:59:36;100556.13;;;9.77;90.99
50632;BME280;49583;45.590;-122.498;2023-04-07T05:01:49;100551.73;;;9.75;91.09
50632;BME280;49583;45.590;-122.498;2023-04-07T05:04:03;100556.48;;;9.76;90.92
50632;BME280;49583;45.590;-122.498;2023-04-07T05:06:16;100556.69;;;9.74;91.10
50632;BME280;49583;45.590;-122.498;2023-04-07T05:08:29;100563.83;;;9.75;90.79
50632;BME280;49583;45.590;-122.498;2023-04-07T05:10:42;100564.45;;;9.75;90.99
50632;BME280;49583;45.590;-122.498;2023-04-07T05:12:58;100565.91;;;9.74;90.98
50632;BME280;49583;45.590;-122.498;2023-04-07T05:15:12;100564.48;;;9.73;90.86
50632;BME280;49583;45.590;-122.498;2023-04-07T05:17:27;100564.52;;;9.71;91.40
50632;BME280;49583;45.590;-122.498;2023-04-07T05:19:40;100560.25;;;9.69;91.28
50632;BME280;49583;45.590;-122.498;2023-04-07T05:21:59;100560.46;;;9.68;91.85
50632;BME280;49583;45.590;-122.498;2023-04-07T05:24:15;100558.33;;;9.67;91.94
50632;BME280;49583;45.590;-122.498;2023-04-07T05:26:30;100552.77;;;9.65;92.02
50632;BME280;49583;45.590;-122.498;2023-04-07T05:28:46;100563.05;;;9.65;91.96
50632;BME280;49583;45.590;-122.498;2023-04-07T05:31:08;100564.30;;;9.65;91.52
50632;BME280;49583;45.590;-122.498;2023-04-07T05:33:21;100571.05;;;9.66;91.78
50632;BME280;49583;45.590;-122.498;2023-04-07T05:35:34;100575.97;;;9.66;91.66
50632;BME280;49583;45.590;-122.498;2023-04-07T05:37:47;100571.83;;;9.66;91.49
50632;BME280;49583;45.590;-122.498;2023-04-07T05:40:00;100576.34;;;9.65;91.77
50632;BME280;49583;45.590;-122.498;2023-04-07T05:42:14;100573.39;;;9.63;91.72
50632;BME280;49583;45.590;-122.498;2023-04-07T05:44:29;100572.94;;;9.61;91.67
50632;BME280;49583;45.590;-122.498;2023-04-07T05:46:42;100571.98;;;9.59;91.64
50632;BME280;49583;45.590;-122.498;2023-04-07T05:48:55;100575.42;;;9.59;91.85
50632;BME280;49583;45.590;-122.498;2023-04-07T05:51:28;100572.98;;;9.58;91.98
50632;BME280;49583;45.590;-122.498;2023-04-07T05:53:45;100573.38;;;9.58;91.91
50632;BME280;49583;45.590;-122.498;2023-04-07T05:55:59;100568.91;;;9.58;92.10
50632;BME280;49583;45.590;-122.498;2023-04-07T05:58:22;100564.78;;;9.58;92.13
50632;BME280;49583;45.590;-122.498;2023-04-07T06:00:36;100568.23;;;9.59;92.13
50632;BME280;49583;45.590;-122.498;2023-04-07T06:02:51;100566.85;;;9.57;92.13
50632;BME280;49583;45.590;-122.498;2023-04-07T06:05:07;100575.27;;;9.56;92.06
50632;BME280;49583;45.590;-122.498;2023-04-07T06:07:20;100577.61;;;9.57;92.05
50632;BME280;49583;45.590;-122.498;2023-04-07T06:09:33;100571.81;;;9.55;91.96
50632;BME280;49583;45.590;-122.498;2023-04-07T06:11:46;100571.41;;;9.55;92.23
50632;BME280;49583;45.590;-122.498;2023-04-07T06:13:59;100575.69;;;9.55;92.02
50632;BME280;49583;45.590;-122.498;2023-04-07T06:16:12;100576.26;;;9.55;92.11
50632;BME280;49583;45.590;-122.498;2023-04-07T06:18:27;100577.05;;;9.56;91.79
50632;BME280;49583;45.590;-122.498;2023-04-07T06:20:40;100582.86;;;9.57;91.83
50632;BME280;49583;45.590;-122.498;2023-04-07T06:22:53;100585.88;;;9.59;91.75
50632;BME280;49583;45.590;-122.498;2023-04-07T06:25:09;100601.29;;;9.60;91.95
50632;BME280;49583;45.590;-122.498;2023-04-07T06:27:23;100591.23;;;9.57;91.67
50632;BME280;49583;45.590;-122.498;2023-04-07T06:29:36;100599.54;;;9.55;91.44
50632;BME280;49583;45.590;-122.498;2023-04-07T06:31:50;100612.98;;;9.53;91.87
50632;BME280;49583;45.590;-122.498;2023-04-07T06:34:03;100591.61;;;9.50;91.23
50632;BME280;49583;45.590;-122.498;2023-04-07T06:36:17;100593.58;;;9.48;91.88
50632;BME280;49583;45.590;-122.498;2023-04-07T06:38:30;100607.66;;;9.46;92.01
50632;BME280;49583;45.590;-122.498;2023-04-07T06:40:43;100600.61;;;9.45;91.90
50632;BME280;49583;45.590;-122.498;2023-04-07T06:42:56;100602.63;;;9.45;92.15
50632;BME280;49583;45.590;-122.498;2023-04-07T06:45:19;100605.52;;;9.45;92.14
50632;BME280;49583;45.590;-122.498;2023-04-07T06:47:32;100608.02;;;9.45;92.16
50632;BME280;49583;45.590;-122.498;2023-04-07T06:49:45;100613.09;;;9.44;91.70
50632;BME280;49583;45.590;-122.498;2023-04-07T06:51:58;100609.82;;;9.45;91.92
50632;BME280;49583;45.590;-122.498;2023-04-07T06:54:11;100608.03;;;9.46;92.05
50632;BME280;49583;45.590;-122.498;2023-04-07T06:56:24;100612.55;;;9.45;92.05
50632;BME280;49583;45.590;-122.498;2023-04-07T06:58:37;100610.90;;;9.44;91.93
50632;BME280;49583;45.590;-122.498;2023-04-07T07:00:50;100602.16;;;9.44;92.29
50632;BME280;49583;45.590;-122.498;2023-04-07T07:03:03;100601.99;;;9.44;92.44
50632;BME280;49583;45.590;-122.498;2023-04-07T07:05:16;100600.91;;;9.44;92.51
50632;BME280;49583;45.590;-122.498;2023-04-07T07:07:29;100604.91;;;9.46;92.46
50632;BME280;49583;45.590;-122.498;2023-04-07T07:09:42;100606.84;;;9.48;92.49
50632;BME280;49583;45.590;-122.498;2023-04-07T07:11:55;100606.21;;;9.47;92.57
50632;BME280;49583;45.590;-122.498;2023-04-07T07:14:07;100609.61;;;9.48;92.41
50632;BME280;49583;45.590;-122.498;2023-04-07T07:16:20;100609.86;;;9.50;92.31
50632;BME280;49583;45.590;-122.498;2023-04-07T07:18:38;100610.50;;;9.50;92.34
50632;BME280;49583;45.590;-122.498;2023-04-07T07:20:52;100611.93;;;9.51;92.45
50632;BME280;49583;45.590;-122.498;2023-04-07T07:23:05;100613.04;;;9.52;92.47
50632;BME280;49583;45.590;-122.498;2023-04-07T07:25:18;100605.23;;;9.52;92.65
50632;BME280;49583;45.590;-122.498;2023-04-07T07:27:31;100604.22;;;9.52;92.71
50632;BME280;49583;45.590;-122.498;2023-04-07T07:29:44;100612.51;;;9.53;92.55
50632;BME280;49583;45.590;-122.498;2023-04-07T07:31:57;100607.23;;;9.54;93.05
50632;BME280;49583;45.590;-122.498;2023-04-07T07:34:10;100608.71;;;9.54;92.74
50632;BME280;49583;45.590;-122.498;2023-04-07T07:36:22;100608.98;;;9.55;92.51
50632;BME280;49583;45.590;-122.498;2023-04-07T07:38:35;100605.73;;;9.56;92.89
50632;BME280;49583;45.590;-122.498;2023-04-07T07:40:48;100604.90;;;9.57;93.02
50632;BME280;49583;45.590;-122.498;2023-04-07T07:43:01;100600.70;;;9.58;92.96
50632;BME280;49583;45.590;-122.498;2023-04-07T07:45:16;100600.95;;;9.59;92.70
50632;BME280;49583;45.590;-122.498;2023-04-07T07:47:29;100588.36;;;9.58;93.23
50632;BME280;49583;45.590;-122.498;2023-04-07T07:49:43;100595.90;;;9.60;92.94
50632;BME280;49583;45.590;-122.498;2023-04-07T07:51:57;100592.30;;;9.60;93.30
50632;BME280;49583;45.590;-122.498;2023-04-07T07:54:10;100587.02;;;9.61;93.43
50632;BME280;49583;45.590;-122.498;2023-04-07T07:56:24;100590.00;;;9.62;93.42
50632;BME280;49583;45.590;-122.498;2023-04-07T07:58:36;100588.06;;;9.62;93.33
50632;BME280;49583;45.590;-122.498;2023-04-07T08:00:49;100589.11;;;9.63;93.36
50632;BME280;49583;45.590;-122.498;2023-04-07T08:03:03;100597.05;;;9.65;93.32
50632;BME280;49583;45.590;-122.498;2023-04-07T08:05:16;100596.79;;;9.68;93.33
50632;BME280;49583;45.590;-122.498;2023-04-07T08:07:29;100600.48;;;9.70;93.31
50632;BME280;49583;45.590;-122.498;2023-04-07T08:09:41;100600.59;;;9.71;93.05
50632;BME280;49583;45.590;-122.498;2023-04-07T08:11:54;100594.94;;;9.72;92.98
50632;BME280;49583;45.590;-122.498;2023-04-07T08:14:07;100594.83;;;9.74;93.01
50632;BME280;49583;45.590;-122.498;2023-04-07T08:16:20;100602.77;;;9.77;93.01
50632;BME280;49583;45.590;-122.498;2023-04-07T08:18:33;100606.31;;;9.78;92.59
50632;BME280;49583;45.590;-122.498;2023-04-07T08:20:45;100602.40;;;9.78;92.56
50632;BME280;49583;45.590;-122.498;2023-04-07T08:22:58;100607.92;;;9.77;92.38
50632;BME280;49583;45.590;-122.498;2023-04-07T08:25:12;100613.59;;;9.75;92.66
50632;BME280;49583;45.590;-122.498;2023-04-07T08:27:25;100616.34;;;9.72;92.30
50632;BME280;49583;45.590;-122.498;2023-04-07T08:29:38;100616.02;;;9.69;92.40
50632;BME280;49583;45.590;-122.498;2023-04-07T08:31:51;100609.31;;;9.65;91.97
50632;BME280;49583;45.590;-122.498;2023-04-07T08:34:04;100611.73;;;9.62;91.88
50632;BME280;49583;45.590;-122.498;2023-04-07T08:36:17;100609.03;;;9.61;92.01
50632;BME280;49583;45.590;-122.498;2023-04-07T08:38:30;100608.64;;;9.60;92.08
50632;BME280;49583;45.590;-122.498;2023-04-07T08:40:43;100602.15;;;9.60;92.24
50632;BME280;49583;45.590;-122.498;2023-04-07T08:42:58;100600.20;;;9.60;92.47
50632;BME280;49583;45.590;-122.498;2023-04-07T08:45:12;100600.63;;;9.62;92.40
50632;BME280;49583;45.590;-122.498;2023-04-07T08:47:26;100599.17;;;9.63;92.58
50632;BME280;49583;45.590;-122.498;2023-04-07T08:49:41;100594.41;;;9.63;92.49
50632;BME280;49583;45.590;-122.498;2023-04-07T08:51:58;100602.31;;;9.67;92.38
50632;BME280;49583;45.590;-122.498;2023-04-07T08:54:14;100604.67;;;9.68;92.45
50632;BME280;49583;45.590;-122.498;2023-04-07T08:56:28;100606.80;;;9.69;92.26
50632;BME280;49583;45.590;-122.498;2023-04-07T08:58:41;100606.16;;;9.71;92.33
50632;BME280;49583;45.590;-122.498;2023-04-07T09:00:55;100604.95;;;9.73;92.50
50632;BME280;49583;45.590;-122.498;2023-04-07T09:03:09;100602.10;;;9.74;92.34
50632;BME280;49583;45.590;-122.498;2023-04-07T09:05:23;100605.57;;;9.77;92.19
50632;BME280;49583;45.590;-122.498;2023-04-07T09:07:37;100604.45;;;9.78;92.09
50632;BME280;49583;45.590;-122.498;2023-04-07T09:09:52;100607.02;;;9.81;92.03
50632;BME280;49583;45.590;-122.498;2023-04-07T09:12:05;100608.70;;;9.82;92.20
50632;BME280;49583;45.590;-122.498;2023-04-07T09:14:21;100609.02;;;9.84;91.79
50632;BME280;49583;45.590;-122.498;2023-04-07T09:16:34;100614.20;;;9.85;91.58
50632;BME280;49583;45.590;-122.498;2023-04-07T09:18:47;100614.63;;;9.86;91.54
50632;BME280;49583;45.590;-122.498;2023-04-07T09:21:04;100612.02;;;9.87;91.34
50632;BME280;49583;45.590;-122.498;2023-04-07T09:23:28;100608.73;;;9.88;91.32
50632;BME280;49583;45.590;-122.498;2023-04-07T09:25:42;100605.98;;;9.90;91.29
50632;BME280;49583;45.590;-122.498;2023-04-07T09:27:59;100605.06;;;9.91;91.19
50632;BME280;49583;45.590;-122.498;2023-04-07T09:30:15;100610.99;;;9.91;91.20
50632;BME280;49583;45.590;-122.498;2023-04-07T09:32:38;100607.58;;;9.91;91.10
50632;BME280;49583;45.590;-122.498;2023-04-07T09:34:59;100602.88;;;9.91;91.16
50632;BME280;49583;45.590;-122.498;2023-04-07T09:37:22;100607.40;;;9.91;91.09
50632;BME280;49583;45.590;-122.498;2023-04-07T09:39:50;100603.95;;;9.91;91.13
50632;BME280;49583;45.590;-122.498;2023-04-07T09:42:07;100600.84;;;9.91;91.13
50632;BME280;49583;45.590;-122.498;2023-04-07T09:44:20;100598.02;;;9.91;90.72
50632;BME280;49583;45.590;-122.498;2023-04-07T09:46:33;100599.98;;;9.91;90.76
50632;BME280;49583;45.590;-122.498;2023-04-07T09:48:47;100605.45;;;9.91;90.81
50632;BME280;49583;45.590;-122.498;2023-04-07T09:51:13;100606.30;;;9.91;90.89
50632;BME280;49583;45.590;-122.498;2023-04-07T09:53:45;100604.34;;;9.90;90.73
50632;BME280;49583;45.590;-122.498;2023-04-07T09:55:59;100603.98;;;9.88;90.79
50632;BME280;49583;45.590;-122.498;2023-04-07T09:58:13;100607.38;;;9.87;90.74
50632;BME280;49583;45.590;-122.498;2023-04-07T10:00:26;100606.83;;;9.86;90.71
50632;BME280;49583;45.590;-122.498;2023-04-07T10:02:40;100609.55;;;9.86;90.59
50632;BME280;49583;45.590;-122.498;2023-04-07T10:04:53;100608.46;;;9.86;90.68
50632;BME280;49583;45.590;-122.498;2023-04-07T10:07:07;100609.17;;;9.86;90.70
50632;BME280;49583;45.590;-122.498;2023-04-07T10:09:20;100605.71;;;9.86;90.71
50632;BME280;49583;45.590;-122.498;2023-04-07T10:11:34;100609.31;;;9.86;90.43
50632;BME280;49583;45.590;-122.498;2023-04-07T10:13:48;100605.05;;;9.84;90.56
50632;BME280;49583;45.590;-122.498;2023-04-07T10:16:04;100602.61;;;9.84;90.33
50632;BME280;49583;45.590;-122.498;2023-04-07T10:18:19;100605.04;;;9.83;90.67
50632;BME280;49583;45.590;-122.498;2023-04-07T10:20:32;100602.45;;;9.82;90.32
50632;BME280;49583;45.590;-122.498;2023-04-07T10:22:45;100603.23;;;9.82;90.26
50632;BME280;49583;45.590;-122.498;2023-04-07T10:25:03;100607.69;;;9.83;90.31
50632;BME280;49583;45.590;-122.498;2023-04-07T10:27:23;100605.34;;;9.82;90.53
50632;BME280;49583;45.590;-122.498;2023-04-07T10:29:41;100604.69;;;9.81;90.43
50632;BME280;49583;45.590;-122.498;2023-04-07T10:31:55;100602.73;;;9.81;90.19
50632;BME280;49583;45.590;-122.498;2023-04-07T10:34:08;100601.77;;;9.81;90.30
50632;BME280;49583;45.590;-122.498;2023-04-07T10:36:21;100606.15;;;9.80;90.29
50632;BME280;49583;45.590;-122.498;2023-04-07T10:38:34;100601.43;;;9.80;90.08
50632;BME280;49583;45.590;-122.498;2023-04-07T10:40:48;100599.44;;;9.78;90.12
50632;BME280;49583;45.590;-122.498;2023-04-07T10:43:02;100605.40;;;9.76;90.26
50632;BME280;49583;45.590;-122.498;2023-04-07T10:45:55;100608.80;;;9.74;89.97
50632;BME280;49583;45.590;-122.498;2023-04-07T10:48:16;100608.23;;;9.73;90.20
50632;BME280;49583;45.590;-122.498;2023-04-07T10:50:29;100609.02;;;9.70;90.20
50632;BME280;49583;45.590;-122.498;2023-04-07T10:52:42;100604.67;;;9.68;90.07
50632;BME280;49583;45.590;-122.498;2023-04-07T10:55:31;100605.61;;;9.67;90.23
50632;BME280;49583;45.590;-122.498;2023-04-07T10:58:16;100606.02;;;9.65;90.18
50632;BME280;49583;45.590;-122.498;2023-04-07T11:00:30;100603.39;;;9.63;90.03
50632;BME280;49583;45.590;-122.498;2023-04-07T11:02:43;100604.27;;;9.63;89.75
50632;BME280;49583;45.590;-122.498;2023-04-07T11:04:56;100599.88;;;9.63;90.09
50632;BME280;49583;45.590;-122.498;2023-04-07T11:07:09;100600.26;;;9.62;90.17
50632;BME280;49583;45.590;-122.498;2023-04-07T11:09:22;100604.82;;;9.64;89.91
50632;BME280;49583;45.590;-122.498;2023-04-07T11:11:40;100605.59;;;9.64;89.73
50632;BME280;49583;45.590;-122.498;2023-04-07T11:13:52;100601.63;;;9.64;89.72
50632;BME280;49583;45.590;-122.498;2023-04-07T11:16:06;100591.88;;;9.65;89.99
50632;BME280;49583;45.590;-122.498;2023-04-07T11:18:20;100591.90;;;9.65;89.60
50632;BME280;49583;45.590;-122.498;2023-04-07T11:20:46;100590.10;;;9.65;89.81
50632;BME280;49583;45.590;-122.498;2023-04-07T11:23:02;100591.41;;;9.65;89.62
50632;BME280;49583;45.590;-122.498;2023-04-07T11:25:25;100594.15;;;9.65;89.31
50632;BME280;49583;45.590;-122.498;2023-04-07T11:27:39;100589.94;;;9.65;89.56
50632;BME280;49583;45.590;-122.498;2023-04-07T11:29:52;100585.55;;;9.65;89.59
50632;BME280;49583;45.590;-122.498;2023-04-07T11:32:06;100585.28;;;9.63;89.24
50632;BME280;49583;45.590;-122.498;2023-04-07T11:34:18;100589.81;;;9.63;89.37
50632;BME280;49583;45.590;-122.498;2023-04-07T11:36:33;100589.19;;;9.63;89.25
50632;BME280;49583;45.590;-122.498;2023-04-07T11:38:46;100591.91;;;9.63;89.13
50632;BME280;49583;45.590;-122.498;2023-04-07T11:41:08;100591.75;;;9.63;89.32